Time;durP1;ratioP1;P1;durP2;ratioP2;P2;SDS_P1;SDS_P2;PMS_P1;PMS_P2;Temp;Humidity;BMP_temperature;BMP_pressure;BME280_temperature;BME280_humidity;BME280_pressure;Samples;Min_cycle;Max_cycle;Signal;HPM_P1;HPM_P2
2022/01/21 00:01:34;;;;;;;1.67;1.57;;;;;;;-3.47;100.00;97179.66;5051202;28;20437;-73
2022/01/21 00:04:02;;;;;;;7.37;2.40;;;;;;;-3.43;100.00;97188.56;5038327;28;20526;-74
2022/01/21 00:06:29;;;;;;;2.07;1.73;;;;;;;-3.39;100.00;97187.91;5054706;28;20855;-73
2022/01/21 00:08:56;;;;;;;2.17;1.40;;;;;;;-3.73;100.00;97152.31;5054695;28;20848;-73
2022/01/21 00:11:25;;;;;;;4.10;1.73;;;;;;;-3.43;100.00;97196.31;5037833;28;20429;-73
2022/01/21 00:13:52;;;;;;;2.60;1.50;;;;;;;-3.63;100.00;97201.69;5038008;28;20441;-73
2022/01/21 00:16:21;;;;;;;3.27;2.03;;;;;;;-3.59;100.00;97200.28;5055419;28;21204;-74
2022/01/21 00:19:11;;;;;;;7.90;2.07;;;;;;;-3.55;100.00;97218.72;5054844;28;20458;-74
2022/01/21 00:30:14;;;;;;;2.53;1.70;;;;;;;-3.46;100.00;97214.84;5056132;28;20459;-73
2022/01/21 00:32:43;;;;;;;4.50;1.93;;;;;;;-3.47;100.00;97223.59;5056650;28;20824;-74
2022/01/21 00:35:11;;;;;;;4.97;2.20;;;;;;;-3.49;100.00;97223.81;5056661;28;20437;-73
2022/01/21 00:37:38;;;;;;;7.00;1.67;;;;;;;-3.67;100.00;97203.13;5041448;28;20475;-74
2022/01/21 00:40:11;;;;;;;3.43;1.80;;;;;;;-3.94;100.00;97197.41;5061689;28;20515;-73
2022/01/21 00:45:11;;;;;;;12.07;2.67;;;;;;;-3.42;100.00;97239.25;5054111;28;20441;-74
2022/01/21 00:47:38;;;;;;;3.37;1.77;;;;;;;-3.40;100.00;97245.00;5053924;28;20495;-73
2022/01/21 00:50:06;;;;;;;3.93;1.43;;;;;;;-3.47;100.00;97247.66;5037162;28;20477;-73
2022/01/21 00:52:33;;;;;;;2.90;1.50;;;;;;;-3.53;100.00;97227.03;5053775;28;20805;-73
2022/01/21 00:54:59;;;;;;;2.83;1.90;;;;;;;-3.30;100.00;97259.03;5053805;28;20552;-73
2022/01/21 00:57:26;;;;;;;6.23;1.93;;;;;;;-3.73;100.00;97224.66;5053614;28;20552;-74
2022/01/21 00:59:53;;;;;;;3.83;1.70;;;;;;;-3.61;100.00;97244.38;5053314;28;20464;-73
2022/01/21 01:02:20;;;;;;;3.03;1.50;;;;;;;-4.20;100.00;97147.56;5036832;28;20441;-74
2022/01/21 01:04:48;;;;;;;9.80;1.90;;;;;;;-3.72;100.00;97227.03;5053449;28;20929;-74
2022/01/21 01:07:15;;;;;;;1.60;1.33;;;;;;;-3.61;100.00;97248.75;5053552;28;20886;-74
2022/01/21 01:09:43;;;;;;;3.13;1.93;;;;;;;-3.62;100.00;97239.44;5053152;28;20532;-74
2022/01/21 01:12:27;;;;;;;5.53;1.87;;;;;;;-3.71;100.00;97230.41;5054451;28;20978;-74
2022/01/21 01:20:24;;;;;;;1.70;1.60;;;;;;;-3.91;100.00;97235.72;5052963;28;20564;-73
2022/01/21 01:23:06;;;;;;;3.17;2.10;;;;;;;-3.71;100.00;97244.09;5036318;28;20437;-73
2022/01/21 01:28:18;;;;;;;6.37;2.20;;;;;;;-3.67;100.00;97272.88;5053202;28;20495;-73
2022/01/21 01:30:45;;;;;;;4.03;1.10;;;;;;;-4.04;100.00;97254.69;5052448;28;20487;-74
2022/01/21 01:33:14;;;;;;;4.80;1.63;;;;;;;-3.70;100.00;97281.84;5052593;28;20437;-74
2022/01/21 01:35:41;;;;;;;5.40;1.57;;;;;;;-4.05;100.00;97258.28;5036355;28;20441;-74
2022/01/21 01:40:59;;;;;;;5.30;1.60;;;;;;;-3.72;100.00;97299.38;5052600;28;20557;-74
2022/01/21 01:51:29;;;;;;;6.23;1.67;;;;;;;-4.13;100.00;97324.88;5053611;28;20509;-74
2022/01/21 01:53:58;;;;;;;1.43;1.33;;;;;;;-3.95;100.00;97327.53;5036045;28;20449;-74
2022/01/21 01:56:33;;;;;;;4.00;1.33;;;;;;;-4.21;100.00;97318.16;5036006;28;20537;-74
2022/01/21 01:58:59;;;;;;;1.93;1.43;;;;;;;-4.26;100.00;97298.16;5052215;28;20441;-74
2022/01/21 02:01:26;;;;;;;3.37;1.30;;;;;;;-4.14;100.00;97334.41;5053127;28;20465;-74
2022/01/21 02:03:53;;;;;;;4.50;1.73;;;;;;;-4.54;100.00;97259.78;5035451;28;20441;-74
2022/01/21 02:06:21;;;;;;;2.63;1.80;;;;;;;-4.48;100.00;97295.09;5053523;28;20477;-74
2022/01/21 02:08:48;;;;;;;2.03;1.53;;;;;;;-5.07;100.00;97228.31;5035540;28;20458;-74
2022/01/21 02:11:17;;;;;;;7.53;1.93;;;;;;;-4.59;100.00;97292.34;5052013;28;20812;-74
2022/01/21 02:13:47;;;;;;;3.80;1.90;;;;;;;-4.52;100.00;97313.78;5035728;28;20888;-74
2022/01/21 02:21:36;;;;;;;3.53;1.57;;;;;;;-4.44;100.00;97323.84;5051585;28;20496;-74
2022/01/21 02:24:11;;;;;;;5.63;1.97;;;;;;;-4.52;100.00;97329.25;5052916;28;20414;-74
2022/01/21 02:26:39;;;;;;;2.37;1.77;;;;;;;-4.91;100.00;97301.81;5051434;28;20460;-74
2022/01/21 02:29:08;;;;;;;4.37;1.53;;;;;;;-4.93;100.00;97309.75;5051758;28;20491;-74
2022/01/21 02:31:36;;;;;;;6.20;1.60;;;;;;;-4.85;100.00;97342.25;5051652;28;20440;-74
2022/01/21 02:34:05;;;;;;;9.77;1.77;;;;;;;-4.90;100.00;97342.88;5035289;28;20801;-75
2022/01/21 02:36:33;;;;;;;4.30;2.20;;;;;;;-4.98;100.00;97347.44;5035174;28;20979;-74
2022/01/21 02:39:00;;;;;;;7.17;1.70;;;;;;;-5.32;100.00;97327.88;5034859;28;20476;-74
2022/01/21 02:41:27;;;;;;;2.70;1.40;;;;;;;-5.13;100.00;97352.81;5051609;28;20464;-74
2022/01/21 02:43:54;;;;;;;1.83;1.23;;;;;;;-5.20;100.00;97344.31;5035173;28;20528;-74
2022/01/21 02:46:22;;;;;;;4.73;1.87;;;;;;;-5.17;100.00;97365.34;5051042;28;21018;-74
2022/01/21 02:48:50;;;;;;;15.70;2.80;;;;;;;-5.43;100.00;97322.34;5051430;28;20493;-74
2022/01/21 02:51:16;;;;;;;3.03;2.83;;;;;;;-5.48;100.00;97311.81;5052721;28;20512;-74
2022/01/21 02:56:18;;;;;;;3.80;2.00;;;;;;;-5.17;100.00;97364.53;5051301;28;20452;-74
2022/01/21 02:58:47;;;;;;;3.80;1.87;;;;;;;-5.55;100.00;97313.63;5051241;28;20467;-74
2022/01/21 03:01:18;;;;;;;2.70;1.50;;;;;;;-5.26;100.00;97366.53;5034405;28;20571;-74
2022/01/21 03:03:46;;;;;;;2.47;1.77;;;;;;;-5.35;100.00;97360.75;5034720;28;20499;-74
2022/01/21 03:06:15;;;;;;;2.60;1.57;;;;;;;-5.34;100.00;97366.75;5050793;28;20448;-74
2022/01/21 03:08:45;;;;;;;3.30;2.13;;;;;;;-5.30;100.00;97367.13;5034517;28;20473;-74
2022/01/21 03:11:12;;;;;;;3.07;1.40;;;;;;;-5.60;100.00;97346.94;5050675;28;20526;-74
2022/01/21 03:13:41;;;;;;;5.70;1.83;;;;;;;-5.49;100.00;97376.44;5050588;28;20963;-74
2022/01/21 03:16:07;;;;;;;8.67;2.20;;;;;;;-5.54;100.00;97374.47;5050513;28;20492;-74
2022/01/21 03:18:34;;;;;;;4.77;1.83;;;;;;;-5.75;100.00;97356.59;5033942;28;20480;-74
2022/01/21 03:21:01;;;;;;;4.40;1.27;;;;;;;-5.79;100.00;97365.72;5050264;28;20471;-74
2022/01/21 03:23:29;;;;;;;6.57;2.00;;;;;;;-5.76;100.00;97367.91;5050471;28;20436;-74
2022/01/21 03:25:57;;;;;;;3.80;2.20;;;;;;;-5.72;100.00;97372.47;5050546;28;20443;-74
2022/01/21 03:28:40;;;;;;;6.83;3.00;;;;;;;-5.87;100.00;97350.47;5035972;28;20472;-74
2022/01/21 03:31:07;;;;;;;6.80;1.90;;;;;;;-5.78;100.00;97369.88;5034046;28;20960;-74
2022/01/21 03:33:35;;;;;;;4.90;2.60;;;;;;;-6.02;100.00;97351.44;5033938;28;20442;-74
2022/01/21 03:36:02;;;;;;;6.60;2.07;;;;;;;-6.06;100.00;97365.72;5049519;28;20971;-74
2022/01/21 03:38:29;;;;;;;2.70;1.70;;;;;;;-6.46;100.00;97359.66;5049907;28;21078;-74
2022/01/21 03:40:56;;;;;;;3.37;1.83;;;;;;;-6.38;100.00;97364.63;5050108;28;20504;-74
2022/01/21 03:43:24;;;;;;;3.20;1.90;;;;;;;-6.29;100.00;97378.09;5050298;28;20475;-74
2022/01/21 03:45:51;;;;;;;3.20;1.63;;;;;;;-6.34;100.00;97386.41;5033737;28;20545;-74
2022/01/21 03:48:21;;;;;;;5.30;2.93;;;;;;;-6.41;100.00;97375.31;5050180;28;21032;-74
2022/01/21 03:50:49;;;;;;;5.60;3.00;;;;;;;-6.36;100.00;97398.69;5034037;28;20471;-74
2022/01/21 03:53:17;;;;;;;5.63;3.07;;;;;;;-6.45;100.00;97361.25;5033665;28;20453;-74
2022/01/21 03:55:44;;;;;;;12.40;5.40;;;;;;;-6.47;100.00;97390.72;5049863;28;20564;-74
2022/01/21 03:58:11;;;;;;;9.47;7.30;;;;;;;-6.29;100.00;97385.81;5033545;28;20553;-74
2022/01/21 04:00:48;;;;;;;12.80;8.17;;;;;;;-6.06;100.00;97394.03;5034119;28;20461;-74
2022/01/21 04:03:15;;;;;;;9.00;5.40;;;;;;;-6.41;100.00;97364.22;5051198;28;20441;-74
2022/01/21 04:05:44;;;;;;;11.57;6.27;;;;;;;-6.41;100.00;97359.06;5033384;28;20441;-74
2022/01/21 04:08:12;;;;;;;8.23;3.67;;;;;;;-6.43;100.00;97399.63;5033112;28;20465;-74
2022/01/21 04:10:42;;;;;;;4.10;3.80;;;;;;;-6.36;100.00;97398.69;5033533;28;20828;-74
2022/01/21 04:13:17;;;;;;;9.13;4.50;;;;;;;-6.45;100.00;97399.03;5049664;28;20490;-74
2022/01/21 04:15:51;;;;;;;5.77;3.10;;;;;;;-6.61;100.00;97395.00;5033549;28;20452;-74
2022/01/21 04:18:19;;;;;;;12.33;3.43;;;;;;;-6.57;100.00;97397.00;5049403;28;20465;-74
2022/01/21 04:20:52;;;;;;;5.13;2.50;;;;;;;-6.97;100.00;97413.97;5033807;28;20449;-75
2022/01/21 04:23:21;;;;;;;2.60;2.33;;;;;;;-7.12;100.00;97397.06;5049694;28;20452;-74
2022/01/21 04:25:49;;;;;;;5.70;2.30;;;;;;;-6.98;100.00;97409.81;5033315;28;20437;-75
2022/01/21 04:28:16;;;;;;;6.80;2.30;;;;;;;-6.98;100.00;97376.41;5049541;28;20518;-74
2022/01/21 04:30:44;;;;;;;6.00;2.10;;;;;;;-6.57;100.00;97407.28;5051021;28;20491;-74
2022/01/21 04:33:13;;;;;;;2.63;2.33;;;;;;;-6.17;100.00;97402.28;5049526;28;20447;-74
2022/01/21 04:35:41;;;;;;;3.60;2.17;;;;;;;-6.46;100.00;97343.44;5049541;28;20477;-74
2022/01/21 04:38:11;;;;;;;3.17;1.90;;;;;;;-6.19;100.00;97391.41;5032785;28;20465;-74
2022/01/21 04:40:49;;;;;;;11.50;2.40;;;;;;;-6.11;100.00;97390.44;5049415;28;20467;-74
2022/01/21 04:48:47;;;;;;;2.10;1.87;;;;;;;-5.87;100.00;97435.44;5051775;28;20469;-75
2022/01/21 04:51:16;;;;;;;7.63;2.33;;;;;;;-5.94;100.00;97420.00;5053245;28;20441;-75
2022/01/21 04:53:46;;;;;;;11.43;4.80;;;;;;;-5.89;100.00;97437.38;5036699;28;20437;-75
2022/01/21 04:56:19;;;;;;;18.70;9.00;;;;;;;-6.22;100.00;97393.56;5053137;28;20444;-74
2022/01/21 04:58:47;;;;;;;35.00;18.30;;;;;;;-6.15;100.00;97445.84;5052813;28;20468;-74
2022/01/21 05:01:14;;;;;;;15.63;10.43;;;;;;;-6.29;100.00;97445.00;5036455;28;20582;-74
2022/01/21 05:03:42;;;;;;;15.93;7.20;;;;;;;-6.55;100.00;97423.31;5036306;28;20448;-75
2022/01/21 05:06:09;;;;;;;8.77;4.10;;;;;;;-7.11;100.00;97404.59;5052706;28;20471;-75
2022/01/21 05:08:47;;;;;;;6.40;2.87;;;;;;;-6.93;100.00;97451.19;5036077;28;20540;-75
2022/01/21 05:11:16;;;;;;;8.20;3.43;;;;;;;-7.53;100.00;97385.72;5052674;28;20441;-75
2022/01/21 05:13:54;;;;;;;4.50;3.10;;;;;;;-7.07;100.00;97456.44;5036169;28;20441;-75
2022/01/21 05:16:36;;;;;;;7.70;3.37;;;;;;;-7.20;100.00;97439.13;5036917;28;20465;-75
2022/01/21 05:19:14;;;;;;;11.13;3.97;;;;;;;-7.43;100.00;97434.19;5036193;28;20437;-75
2022/01/21 05:21:59;;;;;;;6.43;5.80;;;;;;;-7.88;100.00;97379.69;5053839;28;20464;-74
2022/01/21 05:24:32;;;;;;;8.50;4.50;;;;;;;-7.35;100.00;97456.38;5052638;28;20448;-75
2022/01/21 05:27:01;;;;;;;5.13;4.23;;;;;;;-7.67;100.00;97421.72;5035882;28;20990;-74
2022/01/21 05:29:35;;;;;;;5.70;4.40;;;;;;;-7.36;100.00;97468.41;5036787;28;20445;-74
2022/01/21 05:32:08;;;;;;;7.83;4.53;;;;;;;-7.59;100.00;97424.19;5036697;28;20914;-75
2022/01/21 05:34:39;;;;;;;6.57;5.13;;;;;;;-7.72;100.00;97442.03;5053643;28;20413;-75
2022/01/21 05:37:36;;;;;;;9.47;5.47;;;;;;;-7.56;100.00;97413.53;5039700;28;20461;-75
2022/01/21 05:40:24;;;;;;;6.43;4.87;;;;;;;-7.27;100.00;97451.13;5038505;28;20434;-75
2022/01/21 05:43:05;;;;;;;7.90;4.00;;;;;;;-7.51;100.00;97413.78;5052273;28;20939;-75
2022/01/21 05:48:58;;;;;;;4.00;3.67;;;;;;;-7.77;100.00;97416.88;5052118;28;20432;-75
2022/01/21 05:52:15;;;;;;;6.00;4.37;;;;;;;-7.56;100.00;97452.84;5052271;28;20956;-75
2022/01/21 05:55:11;;;;;;;8.50;4.90;;;;;;;-7.70;100.00;97428.03;5016090;28;20518;-75
2022/01/21 05:57:44;;;;;;;10.73;4.07;;;;;;;-7.72;100.00;97453.09;5036268;28;20964;-75
2022/01/21 06:00:14;;;;;;;8.17;3.83;;;;;;;-7.93;100.00;97425.63;5034514;28;20445;-75
2022/01/21 06:02:47;;;;;;;5.40;3.97;;;;;;;-7.93;100.00;97443.59;5052120;28;20519;-75
2022/01/21 06:05:15;;;;;;;8.40;5.40;;;;;;;-8.01;100.00;97471.09;5035297;28;20453;-75
2022/01/21 06:07:42;;;;;;;5.53;4.67;;;;;;;-8.10;100.00;97449.91;5051609;28;20502;-75
2022/01/21 06:10:09;;;;;;;10.70;4.30;;;;;;;-7.95;100.00;97468.63;5035327;28;20559;-75
2022/01/21 06:12:36;;;;;;;4.10;3.20;;;;;;;-7.95;100.00;97483.22;5051697;28;20877;-75
2022/01/21 06:15:03;;;;;;;7.97;3.67;;;;;;;-8.16;100.00;97463.44;5051723;28;20537;-75
2022/01/21 06:17:29;;;;;;;5.80;3.87;;;;;;;-8.01;100.00;97487.31;5035024;28;20527;-75
2022/01/21 06:19:56;;;;;;;6.00;3.60;;;;;;;-8.02;100.00;97478.00;5051656;28;20484;-74
2022/01/21 06:22:22;;;;;;;6.30;5.80;;;;;;;-8.16;100.00;97471.94;5034912;28;20461;-75
2022/01/21 06:24:51;;;;;;;8.80;4.83;;;;;;;-8.21;100.00;97452.94;5051735;28;20437;-75
2022/01/21 06:27:25;;;;;;;13.10;5.50;;;;;;;-7.88;100.00;97496.91;5052738;28;20540;-75
2022/01/21 06:29:55;;;;;;;8.67;6.23;;;;;;;-8.07;100.00;97477.75;5052796;28;20429;-74
2022/01/21 06:32:22;;;;;;;9.00;5.53;;;;;;;-7.90;100.00;97471.44;5034754;28;20520;-75
2022/01/21 06:34:49;;;;;;;8.37;7.03;;;;;;;-7.74;100.00;97506.38;5051350;28;20434;-75
2022/01/21 06:37:15;;;;;;;10.67;6.10;;;;;;;-7.96;100.00;97508.09;5034588;28;20464;-75
2022/01/21 06:39:42;;;;;;;11.43;5.03;;;;;;;-8.07;100.00;97493.16;5034717;28;20936;-74
2022/01/21 06:42:09;;;;;;;10.80;6.67;;;;;;;-8.04;100.00;97500.50;5034342;28;20996;-74
2022/01/21 06:44:36;;;;;;;5.47;4.97;;;;;;;-8.06;100.00;97500.66;5034747;28;20441;-74
2022/01/21 06:47:03;;;;;;;34.30;18.83;;;;;;;-8.14;100.00;97494.88;5052375;28;20495;-74
2022/01/21 06:49:30;;;;;;;22.40;10.80;;;;;;;-8.20;100.00;97483.53;5034683;28;20481;-75
2022/01/21 06:51:57;;;;;;;16.03;9.67;;;;;;;-8.22;100.00;97488.06;5051218;28;20422;-75
2022/01/21 06:54:23;;;;;;;12.27;7.70;;;;;;;-8.08;100.00;97510.31;5034572;28;20433;-75
2022/01/21 06:56:50;;;;;;;8.90;6.40;;;;;;;-7.91;100.00;97512.69;5034396;28;20548;-75
2022/01/21 06:59:17;;;;;;;18.20;8.00;;;;;;;-7.79;100.00;97509.47;5050924;28;20804;-75
2022/01/21 07:01:43;;;;;;;12.00;9.00;;;;;;;-7.74;100.00;97506.38;5050817;28;20465;-74
2022/01/21 07:04:10;;;;;;;11.03;7.07;;;;;;;-7.82;100.00;97516.75;5050650;28;20453;-74
2022/01/21 07:06:36;;;;;;;20.37;10.00;;;;;;;-7.88;100.00;97509.75;5050670;28;20452;-74
2022/01/21 07:09:03;;;;;;;17.90;10.10;;;;;;;-8.48;100.00;97429.56;5034315;28;20476;-74
2022/01/21 07:11:30;;;;;;;9.60;8.40;;;;;;;-8.39;100.00;97479.00;5050445;28;20510;-74
2022/01/21 07:13:57;;;;;;;11.27;6.13;;;;;;;-8.38;100.00;97473.69;5050532;28;20480;-74
2022/01/21 07:16:24;;;;;;;11.83;6.50;;;;;;;-8.32;100.00;97471.34;5034154;28;20444;-74
2022/01/21 07:18:50;;;;;;;15.17;8.20;;;;;;;-8.34;100.00;97469.00;5050505;28;20437;-74
2022/01/21 07:21:17;;;;;;;13.93;8.10;;;;;;;-8.06;100.00;97507.56;5050453;28;20555;-75
2022/01/21 07:23:44;;;;;;;12.23;9.30;;;;;;;-8.20;100.00;97482.75;5050452;28;20472;-75
2022/01/21 07:26:12;;;;;;;16.00;9.30;;;;;;;-8.26;100.00;97470.66;5050474;28;20488;-75
2022/01/21 07:28:39;;;;;;;21.80;13.53;;;;;;;-8.18;100.00;97485.91;5050596;28;20798;-74
2022/01/21 07:31:06;;;;;;;17.43;12.67;;;;;;;-8.16;100.00;97495.03;5050321;28;20524;-74
2022/01/21 07:33:34;;;;;;;20.17;15.33;;;;;;;-7.93;100.00;97512.06;5050713;28;20437;-74
2022/01/21 07:36:00;;;;;;;18.80;12.90;;;;;;;-8.03;100.00;97489.25;5050399;28;20949;-74
2022/01/21 07:38:27;;;;;;;15.83;11.30;;;;;;;-7.84;100.00;97498.97;5051435;28;20551;-74
2022/01/21 07:40:54;;;;;;;17.57;11.47;;;;;;;-7.56;100.00;97514.47;5050268;28;20467;-75
2022/01/21 07:43:20;;;;;;;19.40;12.13;;;;;;;-7.79;100.00;97477.88;5051482;28;20492;-74
2022/01/21 07:45:47;;;;;;;16.43;12.87;;;;;;;-7.76;100.00;97480.06;5051576;28;20425;-75
2022/01/21 07:48:14;;;;;;;18.37;13.10;;;;;;;-7.53;100.00;97505.59;5050009;28;20457;-74
2022/01/21 07:50:41;;;;;;;19.50;12.10;;;;;;;-7.69;100.00;97488.66;5033713;28;20486;-75
2022/01/21 07:53:08;;;;;;;16.47;10.87;;;;;;;-7.56;100.00;97505.97;5050177;28;20872;-75
2022/01/21 07:55:34;;;;;;;16.63;10.60;;;;;;;-7.26;100.00;97492.03;5050277;28;20548;-75
2022/01/21 07:58:01;;;;;;;380.70;178.37;;;;;;;-7.33;100.00;97472.41;5050260;28;20464;-75
2022/01/21 08:00:28;;;;;;;323.17;156.30;;;;;;;-7.12;100.00;97481.88;5050121;28;20502;-75
2022/01/21 08:02:55;;;;;;;144.03;81.17;;;;;;;-6.90;100.00;97471.38;5033517;28;20552;-75
2022/01/21 08:05:23;;;;;;;109.07;54.07;;;;;;;-6.74;100.00;97493.41;5050146;28;20437;-75
2022/01/21 08:07:50;;;;;;;100.33;54.53;;;;;;;-6.75;100.00;97511.63;5050018;28;20500;-75
2022/01/21 08:10:17;;;;;;;58.03;39.10;;;;;;;-6.74;100.00;97478.00;5033571;28;20532;-75
2022/01/21 08:12:43;;;;;;;64.27;43.70;;;;;;;-6.62;100.00;97481.63;5049977;28;20445;-75
2022/01/21 08:15:10;;;;;;;24.77;16.40;;;;;;;-6.19;100.00;97507.19;5051415;28;20468;-75
2022/01/21 08:17:36;;;;;;;41.80;25.27;;;;;;;-6.35;100.00;97472.28;5049955;28;20495;-75
2022/01/21 08:20:03;;;;;;;19.90;11.80;;;;;;;-6.02;100.00;97472.44;5050001;28;20995;-75
2022/01/21 08:22:30;;;;;;;7.67;4.70;;;;;;;-5.57;100.00;97492.56;5050215;28;20548;-75
2022/01/21 08:24:57;;;;;;;9.77;7.23;;;;;;;-5.80;100.00;97478.22;5053788;28;20555;-75
2022/01/21 08:27:24;;;;;;;19.47;8.67;;;;;;;-5.72;100.00;97493.50;5053975;28;20453;-75
2022/01/21 08:29:51;;;;;;;10.67;5.00;;;;;;;-5.65;100.00;97485.78;5055173;28;20468;-75
2022/01/21 08:32:18;;;;;;;8.37;4.40;;;;;;;-5.41;100.00;97505.84;5053625;28;20440;-75
2022/01/21 08:34:45;;;;;;;4.23;3.83;;;;;;;-5.42;100.00;97478.50;5036927;28;20472;-75
2022/01/21 08:37:12;;;;;;;7.83;3.40;;;;;;;-4.74;100.00;97503.34;5054896;28;20983;-75
2022/01/21 08:39:38;;;;;;;5.80;2.30;;;;;;;-4.65;100.00;97484.88;5054924;28;20450;-75
2022/01/21 08:42:06;;;;;;;6.37;2.40;;;;;;;-4.46;100.00;97489.19;5053364;28;20900;-75
2022/01/21 08:44:33;;;;;;;7.27;2.70;;;;;;;-4.12;100.00;97509.78;5053384;28;20441;-75
2022/01/21 08:46:59;;;;;;;71.47;32.70;;;;;;;-4.08;100.00;97500.63;5053324;28;20532;-75
2022/01/21 08:49:38;;;;;;;53.37;28.80;;;;;;;-4.08;100.00;97493.66;5053349;28;20524;-75
2022/01/21 08:52:05;;;;;;;11.00;7.00;;;;;;;-4.16;100.00;97470.66;5053455;28;20524;-75
2022/01/21 08:54:31;;;;;;;13.50;7.87;;;;;;;-3.92;100.00;97492.41;5036715;28;20545;-75
2022/01/21 08:56:58;;;;;;;10.30;6.90;;;;;;;-4.05;100.00;97462.28;5053226;28;20559;-75
2022/01/21 08:59:28;;;;;;;11.63;7.57;;;;;;;-4.03;100.00;97467.22;5036786;28;20480;-75
2022/01/21 09:01:55;;;;;;;11.00;5.30;;;;;;;-3.75;100.00;97508.22;5036183;28;20542;-75
2022/01/21 09:04:22;;;;;;;3.83;2.63;;;;;;;-3.67;100.00;97508.00;5053151;28;20978;-75
2022/01/21 09:06:50;;;;;;;5.17;2.43;;;;;;;-3.71;100.00;97512.00;5052999;28;20457;-75
2022/01/21 09:09:17;;;;;;;9.60;3.47;;;;;;;-3.67;100.00;97477.00;5036436;28;20544;-75
2022/01/21 09:11:43;;;;;;;15.37;3.00;;;;;;;-3.38;100.00;97514.41;5036542;28;20540;-75
2022/01/21 09:14:10;;;;;;;3.20;2.27;;;;;;;-3.25;100.00;97506.59;5053047;28;20520;-75
2022/01/21 09:16:38;;;;;;;7.37;2.23;;;;;;;-3.13;100.00;97514.47;5053098;28;20441;-75
2022/01/21 09:19:06;;;;;;;5.43;2.53;;;;;;;-2.93;100.00;97514.34;5053065;28;20449;-75
2022/01/21 09:21:36;;;;;;;7.40;2.17;;;;;;;-2.81;100.00;97518.59;5053231;28;20532;-75
2022/01/21 09:24:04;;;;;;;10.20;3.23;;;;;;;-2.75;100.00;97525.53;5052879;28;20563;-76
2022/01/21 09:26:31;;;;;;;2.73;2.53;;;;;;;-2.69;100.00;97537.59;5036831;28;20479;-75
2022/01/21 09:29:00;;;;;;;7.53;3.07;;;;;;;-2.60;100.00;97486.38;5053123;28;20528;-75
2022/01/21 09:31:27;;;;;;;6.33;2.50;;;;;;;-1.90;100.00;97524.91;5052678;28;20533;-75
2022/01/21 09:34:13;;;;;;;6.33;3.10;;;;;;;-1.71;100.00;97502.38;5052966;28;20440;-75
2022/01/21 09:36:42;;;;;;;8.33;4.03;;;;;;;-1.61;100.00;97510.41;5036445;28;20484;-76
2022/01/21 09:39:09;;;;;;;3.30;2.33;;;;;;;-1.40;100.00;97525.50;5053099;28;20441;-76
2022/01/21 09:41:35;;;;;;;36.90;18.77;;;;;;;-1.45;100.00;97507.22;5053994;28;20533;-76
2022/01/21 09:44:04;;;;;;;194.23;107.83;;;;;;;-1.21;100.00;97526.22;5052760;28;20437;-75
2022/01/21 09:46:34;;;;;;;318.63;175.10;;;;;;;-1.30;100.00;97528.38;5052620;28;20536;-75
2022/01/21 09:49:27;;;;;;;236.50;126.60;;;;;;;-1.24;100.00;97535.25;5054176;28;20443;-75
2022/01/21 09:52:01;;;;;;;25.70;19.37;;;;;;;-1.67;100.00;97493.16;5052631;28;20920;-75
2022/01/21 09:54:32;;;;;;;9.13;1.83;;;;;;;-1.81;100.00;97527.00;5052695;28;20504;-75
2022/01/21 09:57:00;;;;;;;1.93;1.40;;;;;;;-1.84;100.00;97537.03;5052708;28;20994;-75
2022/01/21 09:59:30;;;;;;;4.03;2.03;;;;;;;-1.94;100.00;97521.97;5035931;28;20480;-75
2022/01/21 10:02:00;;;;;;;8.90;2.67;;;;;;;-2.10;100.00;97488.88;5053645;28;20429;-75
2022/01/21 10:04:33;;;;;;;25.43;2.83;;;;;;;-2.15;100.00;97484.31;5036084;28;20463;-75
2022/01/21 10:07:02;;;;;;;5.37;3.30;;;;;;;-2.14;100.00;97488.53;5052249;28;20829;-75
2022/01/21 10:09:29;;;;;;;5.70;2.97;;;;;;;-2.26;100.00;97494.63;5053715;28;20437;-76
2022/01/21 10:11:57;;;;;;;3.30;2.40;;;;;;;-2.15;100.00;97509.44;5052331;28;20476;-75
2022/01/21 10:14:27;;;;;;;7.97;2.83;;;;;;;-2.19;100.00;97500.53;5052054;28;20521;-76
2022/01/21 10:16:55;;;;;;;4.30;2.83;;;;;;;-2.18;100.00;97489.16;5035526;28;20564;-75
2022/01/21 10:19:30;;;;;;;11.10;4.73;;;;;;;-1.98;100.00;97479.38;5053264;28;20431;-75
2022/01/21 10:22:11;;;;;;;3.90;2.90;;;;;;;-2.04;100.00;97498.34;5035328;28;20515;-75
2022/01/21 10:24:59;;;;;;;4.90;4.10;;;;;;;-2.00;100.00;97489.16;5051926;28;20460;-75
2022/01/21 10:27:39;;;;;;;6.60;4.90;;;;;;;-2.08;100.00;97453.97;5051648;28;20975;-75
2022/01/21 10:30:28;;;;;;;5.40;3.57;;;;;;;-1.91;100.00;97482.66;5034893;28;20520;-75
2022/01/21 10:32:55;;;;;;;3.23;3.03;;;;;;;-2.00;100.00;97447.72;5051412;28;20818;-75
2022/01/21 10:35:35;;;;;;;5.80;3.47;;;;;;;-1.76;100.00;97478.91;5035943;28;20457;-76
2022/01/21 10:38:27;;;;;;;7.83;4.03;;;;;;;-1.75;100.00;97477.88;5051244;28;20564;-76
2022/01/21 10:41:06;;;;;;;4.90;3.97;;;;;;;-1.96;100.00;97435.88;5051248;28;20885;-76
2022/01/21 10:43:34;;;;;;;5.57;3.27;;;;;;;-1.56;100.00;97471.66;5034711;28;20548;-75
2022/01/21 10:46:03;;;;;;;3.97;2.50;;;;;;;-1.52;100.00;97472.81;5050796;28;20498;-76
2022/01/21 10:48:32;;;;;;;2.70;2.50;;;;;;;-1.44;100.00;97472.50;5051149;28;20548;-75
2022/01/21 10:51:24;;;;;;;6.30;2.17;;;;;;;-1.44;100.00;97469.91;5051134;28;20445;-76
2022/01/21 10:53:52;;;;;;;12.43;3.50;;;;;;;-1.50;100.00;97468.97;5034538;28;20464;-75
2022/01/21 10:56:20;;;;;;;10.43;2.93;;;;;;;-1.53;100.00;97459.03;5051258;28;20519;-75
2022/01/21 10:58:51;;;;;;;4.93;2.60;;;;;;;-1.65;100.00;97434.09;5051337;28;21040;-76
2022/01/21 11:01:21;;;;;;;4.73;3.43;;;;;;;-1.59;100.00;97409.88;5051294;28;20433;-75
2022/01/21 11:04:12;;;;;;;7.50;3.90;;;;;;;-1.22;100.00;97452.81;5050651;28;20464;-75
2022/01/21 11:06:53;;;;;;;6.30;3.13;;;;;;;-1.18;100.00;97452.38;5050565;28;20495;-76
2022/01/21 11:09:25;;;;;;;6.00;2.73;;;;;;;-1.20;100.00;97453.41;5050885;28;20497;-75
2022/01/21 11:12:10;;;;;;;6.83;4.30;;;;;;;-1.10;100.00;97439.84;5050735;28;20759;-75
2022/01/21 11:14:53;;;;;;;8.50;3.37;;;;;;;-1.07;100.00;97443.78;5051928;28;20504;-75
2022/01/21 11:17:20;;;;;;;3.00;2.23;;;;;;;-1.06;100.00;97432.44;5050785;28;20468;-76
2022/01/21 11:20:18;;;;;;;7.60;2.50;;;;;;;-1.06;100.00;97427.25;5034686;28;20457;-76
2022/01/21 11:22:59;;;;;;;3.93;3.17;;;;;;;-0.95;100.00;97424.63;5050295;28;20465;-76
2022/01/21 11:25:46;;;;;;;6.50;3.30;;;;;;;-1.00;100.00;97415.94;5050662;28;20464;-76
2022/01/21 11:28:15;;;;;;;3.47;2.73;;;;;;;-0.97;100.00;97410.31;5034213;28;20500;-76
2022/01/21 11:30:42;;;;;;;5.80;3.70;;;;;;;-0.77;100.00;97430.75;5034567;28;21002;-76
2022/01/21 11:33:09;;;;;;;4.90;3.30;;;;;;;-0.99;100.00;97381.19;5052231;28;20794;-76
2022/01/21 11:35:36;;;;;;;10.03;3.87;;;;;;;-0.87;100.00;97425.31;5050448;28;20468;-76
2022/01/21 11:38:07;;;;;;;4.37;3.50;;;;;;;-0.82;100.00;97418.44;5051677;28;20477;-76
2022/01/21 11:40:34;;;;;;;8.67;3.63;;;;;;;-0.94;100.00;97400.25;5050469;28;20418;-76
2022/01/21 11:43:07;;;;;;;3.57;3.27;;;;;;;-0.78;100.00;97413.59;5051677;28;20548;-76
2022/01/21 11:51:16;;;;;;;4.33;2.10;;;;;;;-0.91;100.00;97409.41;5050539;28;20500;-77
2022/01/21 11:53:57;;;;;;;7.10;2.80;;;;;;;-1.19;100.00;97391.91;5050362;28;20505;-76
2022/01/21 11:56:42;;;;;;;4.07;2.60;;;;;;;-1.05;100.00;97413.25;5050236;28;20437;-76
2022/01/21 11:59:11;;;;;;;5.50;2.00;;;;;;;-1.64;100.00;97357.91;5053469;28;20457;-76
2022/01/21 12:01:47;;;;;;;10.93;2.93;;;;;;;-1.27;100.00;97416.38;5054304;28;20449;-76
2022/01/21 12:04:35;;;;;;;4.00;2.53;;;;;;;-1.54;100.00;97364.13;5054380;28;20995;-76
2022/01/21 12:07:02;;;;;;;5.30;3.00;;;;;;;-1.42;100.00;97377.09;5054329;28;20543;-76
2022/01/21 12:09:55;;;;;;;6.50;3.07;;;;;;;-1.30;100.00;97395.28;5054387;28;20543;-76
2022/01/21 12:12:24;;;;;;;5.80;4.10;;;;;;;-1.45;100.00;97369.78;5054287;28;20461;-76
2022/01/21 12:14:58;;;;;;;5.70;3.40;;;;;;;-1.25;100.00;97398.00;5053972;28;20880;-76
2022/01/21 12:17:51;;;;;;;6.77;3.80;;;;;;;-1.24;100.00;97392.56;5056999;28;20495;-76
2022/01/21 12:20:30;;;;;;;5.30;4.57;;;;;;;-1.18;100.00;97395.31;5055436;28;20437;-76
2022/01/21 12:23:12;;;;;;;15.20;7.90;;;;;;;-1.30;100.00;97371.94;5037747;28;20510;-76
2022/01/21 12:26:16;;;;;;;36.63;20.70;;;;;;;-1.03;100.00;97387.88;5054198;28;20528;-76
2022/01/21 12:28:46;;;;;;;8.70;3.70;;;;;;;-0.98;100.00;97386.16;5054332;28;20861;-76
2022/01/21 12:31:15;;;;;;;6.50;5.13;;;;;;;-0.88;100.00;97377.03;5054156;28;20545;-76